sensor_id;sensor_type;location;lat;lon;timestamp;pressure;altitude;pressure_sealevel;temperature;humidity
39613;BME280;25303;48.896;13.342;2022-08-21T00:01:22;92903.84;;;16.31;77.78
39613;BME280;25303;48.896;13.342;2022-08-21T00:04:06;92909.88;;;16.32;77.54
39613;BME280;25303;48.896;13.342;2022-08-21T00:06:51;92909.88;;;16.32;77.58
39613;BME280;25303;48.896;13.342;2022-08-21T00:09:35;92902.09;;;16.32;77.84
39613;BME280;25303;48.896;13.342;2022-08-21T00:12:19;92898.66;;;16.31;78.06
39613;BME280;25303;48.896;13.342;2022-08-21T00:15:03;92904.47;;;16.33;77.42
39613;BME280;25303;48.896;13.342;2022-08-21T00:17:49;92897.69;;;16.32;77.33
39613;BME280;25303;48.896;13.342;2022-08-21T00:20:32;92897.06;;;16.30;77.64
39613;BME280;25303;48.896;13.342;2022-08-21T00:23:16;92896.06;;;16.31;77.57
39613;BME280;25303;48.896;13.342;2022-08-21T00:26:00;92888.28;;;16.31;77.63
39613;BME280;25303;48.896;13.342;2022-08-21T00:28:44;92890.69;;;16.33;77.88
39613;BME280;25303;48.896;13.342;2022-08-21T00:31:27;92898.50;;;16.33;77.82
39613;BME280;25303;48.896;13.342;2022-08-21T00:34:12;92893.09;;;16.34;78.14
39613;BME280;25303;48.896;13.342;2022-08-21T00:36:55;92898.50;;;16.33;78.09
39613;BME280;25303;48.896;13.342;2022-08-21T00:39:39;92902.25;;;16.30;78.13
39613;BME280;25303;48.896;13.342;2022-08-21T00:42:23;92885.88;;;16.30;78.18
39613;BME280;25303;48.896;13.342;2022-08-21T00:45:07;92895.06;;;16.32;78.29
39613;BME280;25303;48.896;13.342;2022-08-21T00:47:51;92904.69;;;16.32;78.23
39613;BME280;25303;48.896;13.342;2022-08-21T00:50:38;92905.25;;;16.27;78.21
39613;BME280;25303;48.896;13.342;2022-08-21T00:53:23;92893.00;;;16.21;78.72
39613;BME280;25303;48.896;13.342;2022-08-21T00:56:09;92896.59;;;16.20;78.54
39613;BME280;25303;48.896;13.342;2022-08-21T00:58:56;92898.00;;;16.22;78.59
39613;BME280;25303;48.896;13.342;2022-08-21T01:01:40;92886.63;;;16.23;78.22
39613;BME280;25303;48.896;13.342;2022-08-21T01:04:23;92879.28;;;16.27;78.23
39613;BME280;25303;48.896;13.342;2022-08-21T01:07:06;92877.09;;;16.31;78.01
39613;BME280;25303;48.896;13.342;2022-08-21T01:09:50;92876.88;;;16.32;78.34
39613;BME280;25303;48.896;13.342;2022-08-21T01:12:33;92874.50;;;16.31;78.36
39613;BME280;25303;48.896;13.342;2022-08-21T01:15:19;92873.50;;;16.32;77.92
39613;BME280;25303;48.896;13.342;2022-08-21T01:18:07;92871.91;;;16.31;78.62
39613;BME280;25303;48.896;13.342;2022-08-21T01:21:01;92875.50;;;16.30;78.41
39613;BME280;25303;48.896;13.342;2022-08-21T01:23:48;92879.69;;;16.31;78.19
39613;BME280;25303;48.896;13.342;2022-08-21T01:26:33;92873.50;;;16.32;78.63
39613;BME280;25303;48.896;13.342;2022-08-21T01:29:26;92868.31;;;16.32;78.10
39613;BME280;25303;48.896;13.342;2022-08-21T01:32:14;92865.50;;;16.33;77.98
39613;BME280;25303;48.896;13.342;2022-08-21T01:34:57;92866.31;;;16.34;78.44
39613;BME280;25303;48.896;13.342;2022-08-21T01:37:42;92872.13;;;16.36;78.01
39613;BME280;25303;48.896;13.342;2022-08-21T01:40:25;92865.13;;;16.36;77.92
39613;BME280;25303;48.896;13.342;2022-08-21T01:43:08;92874.53;;;16.37;77.91
39613;BME280;25303;48.896;13.342;2022-08-21T01:45:51;92864.13;;;16.37;78.10
39613;BME280;25303;48.896;13.342;2022-08-21T01:48:36;92873.53;;;16.38;78.00
39613;BME280;25303;48.896;13.342;2022-08-21T01:51:19;92862.34;;;16.38;77.95
39613;BME280;25303;48.896;13.342;2022-08-21T01:54:04;92862.34;;;16.38;78.02
39613;BME280;25303;48.896;13.342;2022-08-21T01:56:50;92861.53;;;16.37;77.98
39613;BME280;25303;48.896;13.342;2022-08-21T01:59:34;92860.75;;;16.37;77.86
39613;BME280;25303;48.896;13.342;2022-08-21T02:02:17;92858.16;;;16.37;77.91
39613;BME280;25303;48.896;13.342;2022-08-21T02:05:00;92860.13;;;16.35;78.09
39613;BME280;25303;48.896;13.342;2022-08-21T02:07:47;92853.50;;;16.32;77.90
39613;BME280;25303;48.896;13.342;2022-08-21T02:10:32;92851.13;;;16.31;77.77
39613;BME280;25303;48.896;13.342;2022-08-21T02:13:16;92849.72;;;16.28;78.05
39613;BME280;25303;48.896;13.342;2022-08-21T02:15:59;92847.88;;;16.22;77.91
39613;BME280;25303;48.896;13.342;2022-08-21T02:18:42;92846.84;;;16.16;78.46
39613;BME280;25303;48.896;13.342;2022-08-21T02:21:26;92842.78;;;16.07;78.35
39613;BME280;25303;48.896;13.342;2022-08-21T02:24:10;92846.94;;;16.01;79.02
39613;BME280;25303;48.896;13.342;2022-08-21T02:26:54;92842.06;;;15.91;79.13
39613;BME280;25303;48.896;13.342;2022-08-21T02:29:37;92845.44;;;15.85;79.41
39613;BME280;25303;48.896;13.342;2022-08-21T02:32:22;92837.19;;;15.82;79.77
39613;BME280;25303;48.896;13.342;2022-08-21T02:35:06;92839.34;;;15.78;79.48
39613;BME280;25303;48.896;13.342;2022-08-21T02:37:52;92837.94;;;15.75;79.78
39613;BME280;25303;48.896;13.342;2022-08-21T02:40:38;92842.91;;;15.70;80.01
39613;BME280;25303;48.896;13.342;2022-08-21T02:43:30;92845.88;;;15.67;80.53
39613;BME280;25303;48.896;13.342;2022-08-21T02:46:15;92842.66;;;15.65;80.71
39613;BME280;25303;48.896;13.342;2022-08-21T02:48:59;92844.03;;;15.61;80.35
39613;BME280;25303;48.896;13.342;2022-08-21T02:51:42;92838.78;;;15.54;80.74
39613;BME280;25303;48.896;13.342;2022-08-21T02:54:25;92836.56;;;15.51;81.22
39613;BME280;25303;48.896;13.342;2022-08-21T02:57:08;92842.75;;;15.50;81.22
39613;BME280;25303;48.896;13.342;2022-08-21T02:59:52;92839.16;;;15.51;81.42
39613;BME280;25303;48.896;13.342;2022-08-21T03:02:35;92838.97;;;15.53;81.12
39613;BME280;25303;48.896;13.342;2022-08-21T03:05:19;92834.81;;;15.58;81.48
39613;BME280;25303;48.896;13.342;2022-08-21T03:08:04;92829.66;;;15.65;80.84
39613;BME280;25303;48.896;13.342;2022-08-21T03:10:50;92836.91;;;15.70;80.95
39613;BME280;25303;48.896;13.342;2022-08-21T03:13:33;92836.72;;;15.71;80.98
39613;BME280;25303;48.896;13.342;2022-08-21T03:16:18;92843.88;;;15.69;81.10
39613;BME280;25303;48.896;13.342;2022-08-21T03:19:02;92841.28;;;15.69;81.40
39613;BME280;25303;48.896;13.342;2022-08-21T03:21:45;92845.69;;;15.69;81.27
39613;BME280;25303;48.896;13.342;2022-08-21T03:24:28;92840.06;;;15.65;81.65
39613;BME280;25303;48.896;13.342;2022-08-21T03:27:14;92851.06;;;15.67;81.71
39613;BME280;25303;48.896;13.342;2022-08-21T03:29:57;92840.50;;;15.69;81.64
39613;BME280;25303;48.896;13.342;2022-08-21T03:32:41;92847.72;;;15.73;81.51
39613;BME280;25303;48.896;13.342;2022-08-21T03:35:25;92835.34;;;15.75;81.67
39613;BME280;25303;48.896;13.342;2022-08-21T03:38:09;92834.00;;;15.79;81.72
39613;BME280;25303;48.896;13.342;2022-08-21T03:40:54;92844.97;;;15.82;81.42
39613;BME280;25303;48.896;13.342;2022-08-21T03:43:37;92842.00;;;15.85;81.01
39613;BME280;25303;48.896;13.342;2022-08-21T03:46:20;92840.88;;;15.87;80.76
39613;BME280;25303;48.896;13.342;2022-08-21T03:49:04;92843.06;;;15.90;80.78
39613;BME280;25303;48.896;13.342;2022-08-21T03:51:47;92841.91;;;15.93;81.04
39613;BME280;25303;48.896;13.342;2022-08-21T03:54:40;92846.72;;;15.96;80.78
39613;BME280;25303;48.896;13.342;2022-08-21T03:57:23;92834.31;;;15.98;80.76
39613;BME280;25303;48.896;13.342;2022-08-21T04:00:07;92846.31;;;15.99;80.71
39613;BME280;25303;48.896;13.342;2022-08-21T04:02:51;92851.34;;;16.01;80.98
39613;BME280;25303;48.896;13.342;2022-08-21T04:05:36;92850.34;;;16.02;80.59
39613;BME280;25303;48.896;13.342;2022-08-21T04:08:19;92850.16;;;16.03;80.47
39613;BME280;25303;48.896;13.342;2022-08-21T04:11:03;92835.38;;;16.04;80.79
39613;BME280;25303;48.896;13.342;2022-08-21T04:13:46;92844.16;;;16.03;80.54
39613;BME280;25303;48.896;13.342;2022-08-21T04:16:29;92850.16;;;16.03;80.51
39613;BME280;25303;48.896;13.342;2022-08-21T04:19:13;92849.16;;;16.04;80.49
39613;BME280;25303;48.896;13.342;2022-08-21T04:21:57;92858.56;;;16.05;80.42
39613;BME280;25303;48.896;13.342;2022-08-21T04:24:40;92856.94;;;16.04;80.63
39613;BME280;25303;48.896;13.342;2022-08-21T04:27:24;92867.13;;;16.06;80.69
39613;BME280;25303;48.896;13.342;2022-08-21T04:30:09;92861.16;;;16.05;80.63
39613;BME280;25303;48.896;13.342;2022-08-21T04:32:52;92853.16;;;16.07;80.71
39613;BME280;25303;48.896;13.342;2022-08-21T04:35:35;92859.16;;;16.07;80.39
39613;BME280;25303;48.896;13.342;2022-08-21T04:38:20;92862.38;;;16.09;80.27
39613;BME280;25303;48.896;13.342;2022-08-21T04:41:03;92856.19;;;16.10;80.42
39613;BME280;25303;48.896;13.342;2022-08-21T04:43:47;92866.59;;;16.10;80.23
39613;BME280;25303;48.896;13.342;2022-08-21T04:46:30;92849.19;;;16.11;80.21
39613;BME280;25303;48.896;13.342;2022-08-21T04:49:13;92862.59;;;16.15;80.28
39613;BME280;25303;48.896;13.342;2022-08-21T04:51:56;92868.41;;;16.17;79.83
39613;BME280;25303;48.896;13.342;2022-08-21T04:54:42;92859.44;;;16.19;79.69
39613;BME280;25303;48.896;13.342;2022-08-21T04:57:27;92869.84;;;16.19;80.18
39613;BME280;25303;48.896;13.342;2022-08-21T05:00:29;92879.25;;;16.20;79.87
39613;BME280;25303;48.896;13.342;2022-08-21T05:03:12;92886.81;;;16.22;80.38
39613;BME280;25303;48.896;13.342;2022-08-21T05:05:57;92891.81;;;16.23;80.24
39613;BME280;25303;48.896;13.342;2022-08-21T05:08:41;92890.84;;;16.24;80.26
39613;BME280;25303;48.896;13.342;2022-08-21T05:11:26;92886.44;;;16.25;80.31
39613;BME280;25303;48.896;13.342;2022-08-21T05:14:11;92888.69;;;16.28;79.92
39613;BME280;25303;48.896;13.342;2022-08-21T05:16:54;92884.06;;;16.30;79.99
39613;BME280;25303;48.896;13.342;2022-08-21T05:19:37;92889.09;;;16.32;79.82
39613;BME280;25303;48.896;13.342;2022-08-21T05:22:21;92888.28;;;16.31;80.18
39613;BME280;25303;48.896;13.342;2022-08-21T05:25:07;92894.66;;;16.29;80.11
39613;BME280;25303;48.896;13.342;2022-08-21T05:27:53;92881.66;;;16.29;80.24
39613;BME280;25303;48.896;13.342;2022-08-21T05:30:38;92891.84;;;16.30;79.99
39613;BME280;25303;48.896;13.342;2022-08-21T05:33:22;92892.31;;;16.34;80.27
39613;BME280;25303;48.896;13.342;2022-08-21T05:36:06;92887.53;;;16.37;80.45
39613;BME280;25303;48.896;13.342;2022-08-21T05:38:49;92884.72;;;16.39;79.84
39613;BME280;25303;48.896;13.342;2022-08-21T05:41:32;92886.31;;;16.40;79.85
39613;BME280;25303;48.896;13.342;2022-08-21T05:44:17;92890.16;;;16.44;79.76
39613;BME280;25303;48.896;13.342;2022-08-21T05:47:04;92892.38;;;16.47;79.78
39613;BME280;25303;48.896;13.342;2022-08-21T05:49:48;92890.19;;;16.51;80.08
39613;BME280;25303;48.896;13.342;2022-08-21T05:52:31;92895.22;;;16.52;80.05
39613;BME280;25303;48.896;13.342;2022-08-21T05:55:14;92895.63;;;16.56;79.96
39613;BME280;25303;48.896;13.342;2022-08-21T05:57:57;92898.84;;;16.58;79.79
39613;BME280;25303;48.896;13.342;2022-08-21T06:00:43;92892.28;;;16.62;79.51
39613;BME280;25303;48.896;13.342;2022-08-21T06:03:30;92905.84;;;16.64;79.84
39613;BME280;25303;48.896;13.342;2022-08-21T06:06:13;92904.84;;;16.65;80.08
39613;BME280;25303;48.896;13.342;2022-08-21T06:08:57;92912.47;;;16.67;79.67
39613;BME280;25303;48.896;13.342;2022-08-21T06:11:40;92901.69;;;16.70;80.00
39613;BME280;25303;48.896;13.342;2022-08-21T06:14:23;92902.09;;;16.74;79.55
39613;BME280;25303;48.896;13.342;2022-08-21T06:17:10;92905.31;;;16.76;79.64
39613;BME280;25303;48.896;13.342;2022-08-21T06:19:54;92905.31;;;16.76;79.62
39613;BME280;25303;48.896;13.342;2022-08-21T06:22:37;92906.09;;;16.76;79.49
39613;BME280;25303;48.896;13.342;2022-08-21T06:25:20;92904.50;;;16.75;79.67
39613;BME280;25303;48.896;13.342;2022-08-21T06:28:06;92908.91;;;16.75;79.75
39613;BME280;25303;48.896;13.342;2022-08-21T06:30:50;92910.31;;;16.77;79.70
39613;BME280;25303;48.896;13.342;2022-08-21T06:33:34;92904.75;;;16.80;80.01
39613;BME280;25303;48.896;13.342;2022-08-21T06:36:18;92905.34;;;16.82;79.97
39613;BME280;25303;48.896;13.342;2022-08-21T06:39:02;92898.94;;;16.85;79.94
39613;BME280;25303;48.896;13.342;2022-08-21T06:41:57;92898.78;;;16.86;79.79
39613;BME280;25303;48.896;13.342;2022-08-21T06:44:43;92901.16;;;16.88;80.21
39613;BME280;25303;48.896;13.342;2022-08-21T06:47:26;92899.19;;;16.90;79.43
39613;BME280;25303;48.896;13.342;2022-08-21T06:50:10;92899.78;;;16.92;79.69
39613;BME280;25303;48.896;13.342;2022-08-21T06:52:58;92895.03;;;16.96;79.78
39613;BME280;25303;48.896;13.342;2022-08-21T06:55:42;92897.84;;;17.01;79.79
39613;BME280;25303;48.896;13.342;2022-08-21T06:58:25;92897.84;;;17.01;79.74
39613;BME280;25303;48.896;13.342;2022-08-21T07:01:08;92894.88;;;17.04;79.71
39613;BME280;25303;48.896;13.342;2022-08-21T07:03:51;92899.66;;;17.07;79.50
39613;BME280;25303;48.896;13.342;2022-08-21T07:06:36;92889.69;;;17.11;79.39
39613;BME280;25303;48.896;13.342;2022-08-21T07:09:19;92893.69;;;17.13;79.66
39613;BME280;25303;48.896;13.342;2022-08-21T07:12:06;92897.69;;;17.16;79.27
39613;BME280;25303;48.896;13.342;2022-08-21T07:14:49;92895.09;;;17.23;79.30
39613;BME280;25303;48.896;13.342;2022-08-21T07:17:32;92892.50;;;17.29;79.23
39613;BME280;25303;48.896;13.342;2022-08-21T07:20:15;92896.53;;;17.32;79.52
39613;BME280;25303;48.896;13.342;2022-08-21T07:23:02;92904.97;;;17.34;79.01
39613;BME280;25303;48.896;13.342;2022-08-21T07:25:46;92902.56;;;17.39;79.31
39613;BME280;25303;48.896;13.342;2022-08-21T07:28:29;92900.38;;;17.50;79.62
39613;BME280;25303;48.896;13.342;2022-08-21T07:31:14;92905.00;;;17.61;79.94
39613;BME280;25303;48.896;13.342;2022-08-21T07:33:58;92905.81;;;17.75;79.97
39613;BME280;25303;48.896;13.342;2022-08-21T07:36:41;92894.59;;;17.88;79.63
39613;BME280;25303;48.896;13.342;2022-08-21T07:39:25;92894.03;;;17.99;79.76
39613;BME280;25303;48.896;13.342;2022-08-21T07:42:08;92889.22;;;18.10;79.52
39613;BME280;25303;48.896;13.342;2022-08-21T07:44:52;92892.81;;;18.15;79.68
39613;BME280;25303;48.896;13.342;2022-08-21T07:47:37;92890.63;;;18.26;79.07
39613;BME280;25303;48.896;13.342;2022-08-21T07:50:24;92888.59;;;18.41;79.59
39613;BME280;25303;48.896;13.342;2022-08-21T07:53:07;92886.34;;;18.51;78.75
39613;BME280;25303;48.896;13.342;2022-08-21T07:55:52;92891.16;;;18.61;78.98
39613;BME280;25303;48.896;13.342;2022-08-21T07:58:35;92894.09;;;18.72;78.29
39613;BME280;25303;48.896;13.342;2022-08-21T08:01:18;92894.28;;;18.83;78.50
39613;BME280;25303;48.896;13.342;2022-08-21T08:04:02;92893.09;;;18.86;78.32
39613;BME280;25303;48.896;13.342;2022-08-21T08:06:45;92900.69;;;18.88;77.75
39613;BME280;25303;48.896;13.342;2022-08-21T08:09:28;92904.13;;;18.81;76.76
39613;BME280;25303;48.896;13.342;2022-08-21T08:12:13;92901.91;;;18.85;77.55
39613;BME280;25303;48.896;13.342;2022-08-21T08:14:56;92898.88;;;18.95;77.13
39613;BME280;25303;48.896;13.342;2022-08-21T08:17:39;92901.69;;;19.00;76.58
39613;BME280;25303;48.896;13.342;2022-08-21T08:20:24;92907.09;;;19.05;75.98
39613;BME280;25303;48.896;13.342;2022-08-21T08:23:09;92894.63;;;19.07;75.08
39613;BME280;25303;48.896;13.342;2022-08-21T08:25:52;92898.03;;;19.08;75.19
39613;BME280;25303;48.896;13.342;2022-08-21T08:28:37;92897.25;;;19.07;74.19
39613;BME280;25303;48.896;13.342;2022-08-21T08:31:20;92902.50;;;19.01;73.40
39613;BME280;25303;48.896;13.342;2022-08-21T08:34:03;92899.06;;;19.00;74.37
39613;BME280;25303;48.896;13.342;2022-08-21T08:36:46;92898.25;;;19.06;74.56
39613;BME280;25303;48.896;13.342;2022-08-21T08:39:32;92897.63;;;19.11;74.50
39613;BME280;25303;48.896;13.342;2022-08-21T08:42:18;92900.59;;;19.15;73.58
39613;BME280;25303;48.896;13.342;2022-08-21T08:45:20;92900.63;;;19.08;72.01
39613;BME280;25303;48.896;13.342;2022-08-21T08:48:08;92898.47;;;18.98;71.92
39613;BME280;25303;48.896;13.342;2022-08-21T08:50:56;92905.50;;;18.91;72.71
39613;BME280;25303;48.896;13.342;2022-08-21T08:53:43;92902.94;;;18.84;70.89
39613;BME280;25303;48.896;13.342;2022-08-21T08:56:31;92900.91;;;18.86;72.75
39613;BME280;25303;48.896;13.342;2022-08-21T08:59:22;92900.50;;;18.82;71.85
39613;BME280;25303;48.896;13.342;2022-08-21T09:02:09;92901.28;;;18.90;71.66
39613;BME280;25303;48.896;13.342;2022-08-21T09:04:54;92904.28;;;19.00;71.68
39613;BME280;25303;48.896;13.342;2022-08-21T09:07:45;92892.41;;;19.11;71.43
39613;BME280;25303;48.896;13.342;2022-08-21T09:10:38;92891.34;;;19.19;71.18
39613;BME280;25303;48.896;13.342;2022-08-21T09:13:37;92896.50;;;19.32;71.59
39613;BME280;25303;48.896;13.342;2022-08-21T09:16:30;92899.63;;;19.48;71.49
39613;BME280;25303;48.896;13.342;2022-08-21T09:19:31;92896.78;;;19.56;70.84
39613;BME280;25303;48.896;13.342;2022-08-21T09:22:23;92896.69;;;19.69;70.58
39613;BME280;25303;48.896;13.342;2022-08-21T09:25:16;92895.22;;;19.80;70.12
39613;BME280;25303;48.896;13.342;2022-08-21T09:28:07;92899.41;;;19.88;69.23
39613;BME280;25303;48.896;13.342;2022-08-21T09:30:55;92899.13;;;19.96;68.68
39613;BME280;25303;48.896;13.342;2022-08-21T09:33:39;92901.06;;;20.08;67.98
39613;BME280;25303;48.896;13.342;2022-08-21T09:36:31;92901.13;;;20.26;67.55
39613;BME280;25303;48.896;13.342;2022-08-21T09:39:23;92895.78;;;20.40;65.49
39613;BME280;25303;48.896;13.342;2022-08-21T09:42:09;92894.19;;;20.57;65.32
39613;BME280;25303;48.896;13.342;2022-08-21T09:45:07;92885.50;;;20.82;65.23
39613;BME280;25303;48.896;13.342;2022-08-21T09:47:51;92888.16;;;21.13;65.44
39613;BME280;25303;48.896;13.342;2022-08-21T09:50:34;92891.84;;;21.42;64.51
39613;BME280;25303;48.896;13.342;2022-08-21T09:53:21;92889.03;;;21.55;62.69
39613;BME280;25303;48.896;13.342;2022-08-21T09:56:18;92887.41;;;21.73;62.72
39613;BME280;25303;48.896;13.342;2022-08-21T09:59:25;92889.91;;;21.80;62.02
39613;BME280;25303;48.896;13.342;2022-08-21T10:02:31;92889.53;;;21.76;58.69
39613;BME280;25303;48.896;13.342;2022-08-21T10:05:18;92881.56;;;21.71;61.26
39613;BME280;25303;48.896;13.342;2022-08-21T10:08:01;92885.72;;;21.91;61.30
39613;BME280;25303;48.896;13.342;2022-08-21T10:10:50;92885.06;;;22.19;59.79
39613;BME280;25303;48.896;13.342;2022-08-21T10:13:46;92881.66;;;22.66;60.72
39613;BME280;25303;48.896;13.342;2022-08-21T10:16:34;92878.03;;;23.08;55.87
39613;BME280;25303;48.896;13.342;2022-08-21T10:19:27;92882.00;;;23.51;57.83
39613;BME280;25303;48.896;13.342;2022-08-21T10:22:23;92882.91;;;24.03;58.19
39613;BME280;25303;48.896;13.342;2022-08-21T10:25:16;92881.38;;;24.41;56.91
39613;BME280;25303;48.896;13.342;2022-08-21T10:28:09;92875.50;;;24.73;56.14
39613;BME280;25303;48.896;13.342;2022-08-21T10:31:00;92880.13;;;24.66;55.93
39613;BME280;25303;48.896;13.342;2022-08-21T10:33:51;92875.63;;;24.84;56.38
39613;BME280;25303;48.896;13.342;2022-08-21T10:36:46;92870.22;;;25.13;55.38
39613;BME280;25303;48.896;13.342;2022-08-21T10:39:33;92863.16;;;25.18;55.50
39613;BME280;25303;48.896;13.342;2022-08-21T10:42:35;92866.19;;;25.32;51.48
39613;BME280;25303;48.896;13.342;2022-08-21T10:45:32;92862.09;;;25.42;50.04
39613;BME280;25303;48.896;13.342;2022-08-21T10:48:24;92855.47;;;25.39;51.16
39613;BME280;25303;48.896;13.342;2022-08-21T10:51:13;92866.25;;;25.38;48.91
39613;BME280;25303;48.896;13.342;2022-08-21T10:54:05;92860.56;;;25.46;49.58
39613;BME280;25303;48.896;13.342;2022-08-21T10:56:58;92856.09;;;25.74;50.40
39613;BME280;25303;48.896;13.342;2022-08-21T10:59:50;92858.41;;;26.03;48.76
39613;BME280;25303;48.896;13.342;2022-08-21T11:02:41;92848.84;;;26.24;46.58
39613;BME280;25303;48.896;13.342;2022-08-21T11:05:29;92846.81;;;26.36;47.50
39613;BME280;25303;48.896;13.342;2022-08-21T11:08:15;92847.66;;;26.42;46.70
39613;BME280;25303;48.896;13.342;2022-08-21T11:11:04;92850.75;;;26.34;45.51
39613;BME280;25303;48.896;13.342;2022-08-21T11:13:53;92852.44;;;25.80;45.10
39613;BME280;25303;48.896;13.342;2022-08-21T11:16:42;92851.19;;;25.33;46.34
39613;BME280;25303;48.896;13.342;2022-08-21T11:19:31;92847.09;;;25.20;47.19
39613;BME280;25303;48.896;13.342;2022-08-21T11:22:18;92839.44;;;25.18;48.59
39613;BME280;25303;48.896;13.342;2022-08-21T11:25:08;92843.94;;;25.45;48.68
39613;BME280;25303;48.896;13.342;2022-08-21T11:27:56;92843.41;;;25.71;48.65
39613;BME280;25303;48.896;13.342;2022-08-21T11:30:48;92834.25;;;25.51;48.12
39613;BME280;25303;48.896;13.342;2022-08-21T11:33:46;92837.72;;;25.29;48.54
39613;BME280;25303;48.896;13.342;2022-08-21T11:36:38;92832.03;;;25.15;49.23
39613;BME280;25303;48.896;13.342;2022-08-21T11:39:36;92834.84;;;25.09;49.63
39613;BME280;25303;48.896;13.342;2022-08-21T11:42:24;92840.03;;;24.98;49.46
39613;BME280;25303;48.896;13.342;2022-08-21T11:45:20;92850.88;;;24.63;49.32
39613;BME280;25303;48.896;13.342;2022-08-21T11:48:15;92838.97;;;24.38;49.75
39613;BME280;25303;48.896;13.342;2022-08-21T11:51:09;92832.38;;;24.01;49.48
39613;BME280;25303;48.896;13.342;2022-08-21T11:54:01;92838.81;;;23.76;49.72
39613;BME280;25303;48.896;13.342;2022-08-21T11:56:51;92836.38;;;23.41;49.77
39613;BME280;25303;48.896;13.342;2022-08-21T11:59:40;92827.66;;;23.23;50.18
39613;BME280;25303;48.896;13.342;2022-08-21T12:02:31;92832.97;;;22.99;50.66
39613;BME280;25303;48.896;13.342;2022-08-21T12:05:25;92838.09;;;23.06;51.79
39613;BME280;25303;48.896;13.342;2022-08-21T12:08:14;92839.09;;;23.46;50.67
39613;BME280;25303;48.896;13.342;2022-08-21T12:11:05;92848.50;;;23.76;50.00
39613;BME280;25303;48.896;13.342;2022-08-21T12:13:55;92829.56;;;24.08;50.19
39613;BME280;25303;48.896;13.342;2022-08-21T12:16:40;92844.19;;;24.55;49.60
39613;BME280;25303;48.896;13.342;2022-08-21T12:19:33;92834.13;;;24.91;48.89
39613;BME280;25303;48.896;13.342;2022-08-21T12:22:16;92837.00;;;25.12;46.92
39613;BME280;25303;48.896;13.342;2022-08-21T12:25:05;92827.09;;;24.97;45.34
39613;BME280;25303;48.896;13.342;2022-08-21T12:27:51;92834.19;;;24.74;46.88
39613;BME280;25303;48.896;13.342;2022-08-21T12:30:37;92828.94;;;24.35;46.24
39613;BME280;25303;48.896;13.342;2022-08-21T12:33:23;92835.41;;;24.10;46.56
39613;BME280;25303;48.896;13.342;2022-08-21T12:36:14;92829.22;;;23.99;47.28
39613;BME280;25303;48.896;13.342;2022-08-21T12:39:01;92824.00;;;23.87;47.20
39613;BME280;25303;48.896;13.342;2022-08-21T12:41:51;92830.63;;;23.73;46.95
39613;BME280;25303;48.896;13.342;2022-08-21T12:44:48;92825.72;;;23.47;47.60
39613;BME280;25303;48.896;13.342;2022-08-21T12:47:36;92827.06;;;23.33;47.98
39613;BME280;25303;48.896;13.342;2022-08-21T12:50:31;92821.03;;;23.20;48.20
39613;BME280;25303;48.896;13.342;2022-08-21T12:53:25;92817.06;;;23.06;48.34
39613;BME280;25303;48.896;13.342;2022-08-21T12:56:12;92820.88;;;22.98;48.68
39613;BME280;25303;48.896;13.342;2022-08-21T12:59:00;92823.06;;;22.89;48.66
39613;BME280;25303;48.896;13.342;2022-08-21T13:01:49;92815.00;;;22.79;48.95
39613;BME280;25303;48.896;13.342;2022-08-21T13:04:35;92817.06;;;22.77;49.17
39613;BME280;25303;48.896;13.342;2022-08-21T13:07:25;92827.66;;;22.82;48.94
39613;BME280;25303;48.896;13.342;2022-08-21T13:10:18;92821.84;;;22.80;48.48
39613;BME280;25303;48.896;13.342;2022-08-21T13:13:04;92823.44;;;22.81;48.73
39613;BME280;25303;48.896;13.342;2022-08-21T13:15:58;92817.50;;;22.86;48.95
39613;BME280;25303;48.896;13.342;2022-08-21T13:18:54;92811.78;;;22.89;49.16
39613;BME280;25303;48.896;13.342;2022-08-21T13:21:41;92815.50;;;22.93;49.56
39613;BME280;25303;48.896;13.342;2022-08-21T13:24:26;92807.88;;;22.91;49.87
39613;BME280;25303;48.896;13.342;2022-08-21T13:27:27;92812.25;;;22.86;50.68
39613;BME280;25303;48.896;13.342;2022-08-21T13:30:13;92804.47;;;22.91;51.00
39613;BME280;25303;48.896;13.342;2022-08-21T13:32:59;92797.94;;;22.94;51.28
39613;BME280;25303;48.896;13.342;2022-08-21T13:35:50;92806.16;;;22.97;51.40
39613;BME280;25303;48.896;13.342;2022-08-21T13:38:35;92801.22;;;23.01;51.64
39613;BME280;25303;48.896;13.342;2022-08-21T13:41:22;92804.97;;;23.05;51.98
39613;BME280;25303;48.896;13.342;2022-08-21T13:44:16;92796.19;;;23.11;52.01
39613;BME280;25303;48.896;13.342;2022-08-21T13:47:03;92800.97;;;23.14;51.72
39613;BME280;25303;48.896;13.342;2022-08-21T13:49:50;92796.50;;;23.15;51.79
39613;BME280;25303;48.896;13.342;2022-08-21T13:52:48;92803.03;;;23.12;51.87
39613;BME280;25303;48.896;13.342;2022-08-21T13:55:40;92796.63;;;23.08;51.82
39613;BME280;25303;48.896;13.342;2022-08-21T13:58:25;92804.75;;;23.06;51.80
39613;BME280;25303;48.896;13.342;2022-08-21T14:01:18;92807.28;;;23.01;51.11
39613;BME280;25303;48.896;13.342;2022-08-21T14:04:04;92811.19;;;22.99;51.51
39613;BME280;25303;48.896;13.342;2022-08-21T14:06:50;92810.16;;;23.00;50.65
39613;BME280;25303;48.896;13.342;2022-08-21T14:09:41;92800.03;;;23.09;49.67
39613;BME280;25303;48.896;13.342;2022-08-21T14:12:26;92800.03;;;23.20;49.82
39613;BME280;25303;48.896;13.342;2022-08-21T14:15:13;92803.44;;;23.50;49.27
39613;BME280;25303;48.896;13.342;2022-08-21T14:18:07;92798.31;;;23.60;47.77
39613;BME280;25303;48.896;13.342;2022-08-21T14:20:51;92796.47;;;23.44;47.64
39613;BME280;25303;48.896;13.342;2022-08-21T14:23:45;92804.19;;;23.33;48.19
39613;BME280;25303;48.896;13.342;2022-08-21T14:26:30;92794.50;;;23.51;48.25
39613;BME280;25303;48.896;13.342;2022-08-21T14:29:15;92792.22;;;23.72;47.81
39613;BME280;25303;48.896;13.342;2022-08-21T14:31:59;92785.84;;;24.02;47.28